sensor_id;sensor_type;location;lat;lon;timestamp;P1;durP1;ratioP1;P2;durP2;ratioP2
28802;SDS011;15949;55.656;37.422;2022-07-05T00:02:35;13.77;;;8.75;;
28802;SDS011;15949;55.656;37.422;2022-07-05T00:07:40;17.38;;;8.80;;
28802;SDS011;15949;55.656;37.422;2022-07-05T00:12:46;26.90;;;9.52;;
28802;SDS011;15949;55.656;37.422;2022-07-05T00:17:51;23.30;;;9.73;;
28802;SDS011;15949;55.656;37.422;2022-07-05T00:22:57;15.48;;;8.77;;
28802;SDS011;15949;55.656;37.422;2022-07-05T00:28:03;16.98;;;8.80;;
28802;SDS011;15949;55.656;37.422;2022-07-05T00:33:09;14.93;;;9.05;;
28802;SDS011;15949;55.656;37.422;2022-07-05T00:38:15;18.42;;;8.85;;
28802;SDS011;15949;55.656;37.422;2022-07-05T00:43:20;13.60;;;8.75;;
28802;SDS011;15949;55.656;37.422;2022-07-05T00:48:26;15.25;;;9.32;;
28802;SDS011;15949;55.656;37.422;2022-07-05T00:53:31;19.80;;;9.15;;
28802;SDS011;15949;55.656;37.422;2022-07-05T00:58:37;13.85;;;9.00;;
28802;SDS011;15949;55.656;37.422;2022-07-05T01:03:43;19.55;;;9.07;;
28802;SDS011;15949;55.656;37.422;2022-07-05T01:08:49;18.48;;;9.23;;
28802;SDS011;15949;55.656;37.422;2022-07-05T01:13:58;16.35;;;9.02;;
28802;SDS011;15949;55.656;37.422;2022-07-05T01:24:15;13.75;;;9.32;;
28802;SDS011;15949;55.656;37.422;2022-07-05T01:29:22;15.23;;;9.00;;
28802;SDS011;15949;55.656;37.422;2022-07-05T01:34:27;12.95;;;8.43;;
28802;SDS011;15949;55.656;37.422;2022-07-05T01:39:33;11.48;;;8.40;;
28802;SDS011;15949;55.656;37.422;2022-07-05T01:44:39;14.27;;;8.95;;
28802;SDS011;15949;55.656;37.422;2022-07-05T01:49:46;12.90;;;9.07;;
28802;SDS011;15949;55.656;37.422;2022-07-05T01:54:53;17.13;;;8.80;;
28802;SDS011;15949;55.656;37.422;2022-07-05T01:59:58;18.67;;;8.82;;
28802;SDS011;15949;55.656;37.422;2022-07-05T02:05:04;14.45;;;9.25;;
28802;SDS011;15949;55.656;37.422;2022-07-05T02:10:09;17.17;;;9.88;;
28802;SDS011;15949;55.656;37.422;2022-07-05T02:15:15;22.38;;;9.65;;
28802;SDS011;15949;55.656;37.422;2022-07-05T02:20:21;12.63;;;9.18;;
28802;SDS011;15949;55.656;37.422;2022-07-05T02:25:26;15.98;;;8.95;;
28802;SDS011;15949;55.656;37.422;2022-07-05T02:30:32;18.40;;;9.45;;
28802;SDS011;15949;55.656;37.422;2022-07-05T02:35:38;16.13;;;9.18;;
28802;SDS011;15949;55.656;37.422;2022-07-05T02:40:43;14.40;;;9.10;;
28802;SDS011;15949;55.656;37.422;2022-07-05T02:45:49;16.75;;;8.18;;
28802;SDS011;15949;55.656;37.422;2022-07-05T02:50:54;13.25;;;7.78;;
28802;SDS011;15949;55.656;37.422;2022-07-05T02:56:00;13.65;;;7.45;;
28802;SDS011;15949;55.656;37.422;2022-07-05T03:01:06;10.20;;;7.40;;
28802;SDS011;15949;55.656;37.422;2022-07-05T03:06:12;11.65;;;7.43;;
28802;SDS011;15949;55.656;37.422;2022-07-05T03:11:17;13.85;;;7.38;;
28802;SDS011;15949;55.656;37.422;2022-07-05T03:16:25;14.88;;;7.80;;
28802;SDS011;15949;55.656;37.422;2022-07-05T03:21:31;14.60;;;6.95;;
28802;SDS011;15949;55.656;37.422;2022-07-05T03:26:36;12.07;;;7.18;;
28802;SDS011;15949;55.656;37.422;2022-07-05T03:31:42;9.70;;;6.88;;
28802;SDS011;15949;55.656;37.422;2022-07-05T03:36:47;12.48;;;6.78;;
28802;SDS011;15949;55.656;37.422;2022-07-05T03:41:53;13.93;;;6.75;;
28802;SDS011;15949;55.656;37.422;2022-07-05T03:46:59;11.93;;;6.55;;
28802;SDS011;15949;55.656;37.422;2022-07-05T03:52:05;13.32;;;6.43;;
28802;SDS011;15949;55.656;37.422;2022-07-05T03:57:11;11.55;;;6.30;;
28802;SDS011;15949;55.656;37.422;2022-07-05T04:02:18;9.57;;;6.53;;
28802;SDS011;15949;55.656;37.422;2022-07-05T04:07:23;9.45;;;6.28;;
28802;SDS011;15949;55.656;37.422;2022-07-05T04:12:29;14.65;;;6.63;;
28802;SDS011;15949;55.656;37.422;2022-07-05T04:17:35;13.55;;;6.75;;
28802;SDS011;15949;55.656;37.422;2022-07-05T04:22:40;11.55;;;7.20;;
28802;SDS011;15949;55.656;37.422;2022-07-05T04:27:50;9.93;;;6.50;;
28802;SDS011;15949;55.656;37.422;2022-07-05T04:32:57;17.20;;;6.38;;
28802;SDS011;15949;55.656;37.422;2022-07-05T04:38:02;13.85;;;6.75;;
28802;SDS011;15949;55.656;37.422;2022-07-05T04:43:08;13.93;;;6.30;;
28802;SDS011;15949;55.656;37.422;2022-07-05T04:48:14;15.65;;;6.95;;
28802;SDS011;15949;55.656;37.422;2022-07-05T04:53:19;13.95;;;6.68;;
28802;SDS011;15949;55.656;37.422;2022-07-05T04:58:25;18.42;;;6.97;;
28802;SDS011;15949;55.656;37.422;2022-07-05T05:03:30;12.75;;;7.07;;
28802;SDS011;15949;55.656;37.422;2022-07-05T05:08:36;14.23;;;6.50;;
28802;SDS011;15949;55.656;37.422;2022-07-05T05:13:41;15.88;;;7.00;;
28802;SDS011;15949;55.656;37.422;2022-07-05T05:18:50;15.35;;;7.05;;
28802;SDS011;15949;55.656;37.422;2022-07-05T05:23:56;16.83;;;7.63;;
28802;SDS011;15949;55.656;37.422;2022-07-05T05:29:01;11.98;;;6.85;;
28802;SDS011;15949;55.656;37.422;2022-07-05T05:34:07;16.25;;;7.80;;
28802;SDS011;15949;55.656;37.422;2022-07-05T05:39:13;16.65;;;7.28;;
28802;SDS011;15949;55.656;37.422;2022-07-05T05:44:18;14.13;;;6.75;;
28802;SDS011;15949;55.656;37.422;2022-07-05T05:49:24;19.27;;;7.13;;
28802;SDS011;15949;55.656;37.422;2022-07-05T05:54:29;14.85;;;7.22;;
28802;SDS011;15949;55.656;37.422;2022-07-05T05:59:35;9.60;;;6.05;;
28802;SDS011;15949;55.656;37.422;2022-07-05T06:04:40;14.27;;;7.57;;
28802;SDS011;15949;55.656;37.422;2022-07-05T06:09:46;20.27;;;6.45;;
28802;SDS011;15949;55.656;37.422;2022-07-05T06:14:52;14.38;;;6.32;;
28802;SDS011;15949;55.656;37.422;2022-07-05T06:19:57;18.38;;;6.40;;
28802;SDS011;15949;55.656;37.422;2022-07-05T06:25:03;21.45;;;6.82;;
28802;SDS011;15949;55.656;37.422;2022-07-05T06:30:10;16.42;;;7.63;;
28802;SDS011;15949;55.656;37.422;2022-07-05T06:35:18;13.68;;;5.63;;
28802;SDS011;15949;55.656;37.422;2022-07-05T06:40:25;15.30;;;6.68;;
28802;SDS011;15949;55.656;37.422;2022-07-05T06:45:31;10.45;;;6.18;;
28802;SDS011;15949;55.656;37.422;2022-07-05T06:50:40;13.18;;;6.13;;
28802;SDS011;15949;55.656;37.422;2022-07-05T06:55:46;17.38;;;6.78;;
28802;SDS011;15949;55.656;37.422;2022-07-05T07:00:52;12.20;;;5.82;;
28802;SDS011;15949;55.656;37.422;2022-07-05T07:05:58;10.43;;;5.60;;
28802;SDS011;15949;55.656;37.422;2022-07-05T07:11:04;8.55;;;5.55;;
28802;SDS011;15949;55.656;37.422;2022-07-05T07:16:09;14.93;;;6.38;;
28802;SDS011;15949;55.656;37.422;2022-07-05T07:21:15;14.75;;;6.10;;
28802;SDS011;15949;55.656;37.422;2022-07-05T07:26:20;11.90;;;6.15;;
28802;SDS011;15949;55.656;37.422;2022-07-05T07:31:26;10.35;;;6.05;;
28802;SDS011;15949;55.656;37.422;2022-07-05T07:36:32;8.27;;;5.55;;
28802;SDS011;15949;55.656;37.422;2022-07-05T07:41:37;5.72;;;4.68;;
28802;SDS011;15949;55.656;37.422;2022-07-05T07:46:43;9.48;;;5.20;;
28802;SDS011;15949;55.656;37.422;2022-07-05T07:51:49;12.38;;;6.18;;
28802;SDS011;15949;55.656;37.422;2022-07-05T07:56:56;11.20;;;6.00;;
28802;SDS011;15949;55.656;37.422;2022-07-05T08:02:02;8.65;;;5.20;;
28802;SDS011;15949;55.656;37.422;2022-07-05T08:07:07;8.90;;;5.72;;
28802;SDS011;15949;55.656;37.422;2022-07-05T08:12:13;7.40;;;5.47;;
28802;SDS011;15949;55.656;37.422;2022-07-05T08:17:18;8.10;;;6.10;;
28802;SDS011;15949;55.656;37.422;2022-07-05T08:22:25;9.38;;;6.07;;
28802;SDS011;15949;55.656;37.422;2022-07-05T08:27:31;17.52;;;6.22;;
28802;SDS011;15949;55.656;37.422;2022-07-05T08:32:37;7.85;;;5.78;;
28802;SDS011;15949;55.656;37.422;2022-07-05T08:37:42;10.60;;;5.75;;
28802;SDS011;15949;55.656;37.422;2022-07-05T08:42:48;6.70;;;5.93;;
28802;SDS011;15949;55.656;37.422;2022-07-05T08:47:54;8.55;;;6.00;;
28802;SDS011;15949;55.656;37.422;2022-07-05T08:53:04;6.68;;;5.78;;
28802;SDS011;15949;55.656;37.422;2022-07-05T08:58:10;7.15;;;5.90;;
28802;SDS011;15949;55.656;37.422;2022-07-05T09:03:16;6.55;;;5.85;;
28802;SDS011;15949;55.656;37.422;2022-07-05T09:08:23;11.30;;;6.25;;
28802;SDS011;15949;55.656;37.422;2022-07-05T09:13:33;8.57;;;6.00;;
28802;SDS011;15949;55.656;37.422;2022-07-05T09:18:51;7.20;;;6.40;;
28802;SDS011;15949;55.656;37.422;2022-07-05T09:24:11;8.32;;;6.15;;
28802;SDS011;15949;55.656;37.422;2022-07-05T09:29:20;8.52;;;6.65;;
28802;SDS011;15949;55.656;37.422;2022-07-05T09:34:26;7.68;;;6.88;;
28802;SDS011;15949;55.656;37.422;2022-07-05T09:44:42;11.10;;;6.50;;
28802;SDS011;15949;55.656;37.422;2022-07-05T09:49:50;9.48;;;6.70;;
28802;SDS011;15949;55.656;37.422;2022-07-05T09:55:15;9.95;;;6.50;;
28802;SDS011;15949;55.656;37.422;2022-07-05T10:00:23;7.20;;;6.35;;
28802;SDS011;15949;55.656;37.422;2022-07-05T10:05:30;8.65;;;6.57;;
28802;SDS011;15949;55.656;37.422;2022-07-05T10:10:38;8.20;;;7.10;;
28802;SDS011;15949;55.656;37.422;2022-07-05T10:15:45;8.50;;;6.93;;
28802;SDS011;15949;55.656;37.422;2022-07-05T10:20:51;8.43;;;6.90;;
28802;SDS011;15949;55.656;37.422;2022-07-05T10:25:58;7.88;;;7.10;;
28802;SDS011;15949;55.656;37.422;2022-07-05T10:31:04;9.35;;;7.00;;
28802;SDS011;15949;55.656;37.422;2022-07-05T10:36:11;14.85;;;7.25;;
28802;SDS011;15949;55.656;37.422;2022-07-05T10:41:18;7.27;;;6.43;;
28802;SDS011;15949;55.656;37.422;2022-07-05T10:46:37;17.92;;;6.78;;
28802;SDS011;15949;55.656;37.422;2022-07-05T10:51:46;11.85;;;7.07;;
28802;SDS011;15949;55.656;37.422;2022-07-05T11:02:29;7.78;;;6.60;;
28802;SDS011;15949;55.656;37.422;2022-07-05T11:13:25;8.85;;;6.82;;
28802;SDS011;15949;55.656;37.422;2022-07-05T11:24:24;15.10;;;7.10;;
28802;SDS011;15949;55.656;37.422;2022-07-05T11:34:52;12.73;;;6.10;;
28802;SDS011;15949;55.656;37.422;2022-07-05T11:45:17;8.48;;;6.72;;
28802;SDS011;15949;55.656;37.422;2022-07-05T11:50:33;12.05;;;6.97;;
28802;SDS011;15949;55.656;37.422;2022-07-05T11:55:39;9.65;;;6.57;;
28802;SDS011;15949;55.656;37.422;2022-07-05T12:00:45;9.15;;;6.65;;
28802;SDS011;15949;55.656;37.422;2022-07-05T12:06:08;10.77;;;7.35;;
28802;SDS011;15949;55.656;37.422;2022-07-05T12:11:18;10.60;;;6.72;;
28802;SDS011;15949;55.656;37.422;2022-07-05T12:16:42;13.05;;;6.45;;
28802;SDS011;15949;55.656;37.422;2022-07-05T12:21:56;17.63;;;7.40;;
28802;SDS011;15949;55.656;37.422;2022-07-05T12:27:02;11.80;;;8.02;;
28802;SDS011;15949;55.656;37.422;2022-07-05T12:32:08;16.25;;;8.15;;
28802;SDS011;15949;55.656;37.422;2022-07-05T12:42:35;30.88;;;9.02;;
28802;SDS011;15949;55.656;37.422;2022-07-05T12:52:59;18.13;;;7.68;;
28802;SDS011;15949;55.656;37.422;2022-07-05T12:58:05;18.05;;;7.22;;
28802;SDS011;15949;55.656;37.422;2022-07-05T13:03:10;16.92;;;7.53;;
28802;SDS011;15949;55.656;37.422;2022-07-05T13:08:29;18.05;;;6.72;;
28802;SDS011;15949;55.656;37.422;2022-07-05T13:13:35;12.43;;;5.95;;
28802;SDS011;15949;55.656;37.422;2022-07-05T13:18:41;14.60;;;6.30;;
28802;SDS011;15949;55.656;37.422;2022-07-05T13:23:46;24.23;;;6.60;;
28802;SDS011;15949;55.656;37.422;2022-07-05T13:28:52;19.90;;;8.23;;
28802;SDS011;15949;55.656;37.422;2022-07-05T13:33:58;18.05;;;9.07;;
28802;SDS011;15949;55.656;37.422;2022-07-05T13:39:04;17.38;;;9.82;;
28802;SDS011;15949;55.656;37.422;2022-07-05T13:44:10;16.38;;;11.05;;
28802;SDS011;15949;55.656;37.422;2022-07-05T13:49:15;26.05;;;11.93;;
28802;SDS011;15949;55.656;37.422;2022-07-05T13:54:21;26.17;;;16.20;;
28802;SDS011;15949;55.656;37.422;2022-07-05T13:59:27;22.40;;;13.13;;
28802;SDS011;15949;55.656;37.422;2022-07-05T14:04:33;16.00;;;10.75;;
28802;SDS011;15949;55.656;37.422;2022-07-05T14:09:38;13.55;;;9.65;;
28802;SDS011;15949;55.656;37.422;2022-07-05T14:14:44;11.50;;;5.40;;
28802;SDS011;15949;55.656;37.422;2022-07-05T14:19:50;8.57;;;5.88;;
28802;SDS011;15949;55.656;37.422;2022-07-05T14:24:55;9.32;;;6.70;;
28802;SDS011;15949;55.656;37.422;2022-07-05T14:30:01;12.30;;;6.70;;
28802;SDS011;15949;55.656;37.422;2022-07-05T14:35:07;12.90;;;8.18;;
28802;SDS011;15949;55.656;37.422;2022-07-05T14:40:13;10.75;;;7.95;;
28802;SDS011;15949;55.656;37.422;2022-07-05T14:45:19;21.70;;;11.13;;
28802;SDS011;15949;55.656;37.422;2022-07-05T14:50:25;18.23;;;12.38;;
28802;SDS011;15949;55.656;37.422;2022-07-05T14:55:31;15.05;;;9.98;;
28802;SDS011;15949;55.656;37.422;2022-07-05T15:00:37;14.73;;;10.70;;
28802;SDS011;15949;55.656;37.422;2022-07-05T15:05:43;16.15;;;11.93;;
28802;SDS011;15949;55.656;37.422;2022-07-05T15:10:48;20.42;;;14.55;;
28802;SDS011;15949;55.656;37.422;2022-07-05T15:15:54;19.48;;;14.73;;
28802;SDS011;15949;55.656;37.422;2022-07-05T15:21:01;21.88;;;15.13;;
28802;SDS011;15949;55.656;37.422;2022-07-05T15:26:09;17.65;;;14.10;;
28802;SDS011;15949;55.656;37.422;2022-07-05T15:31:14;22.92;;;15.18;;
28802;SDS011;15949;55.656;37.422;2022-07-05T15:36:20;17.90;;;12.88;;
28802;SDS011;15949;55.656;37.422;2022-07-05T15:41:26;16.63;;;11.95;;
28802;SDS011;15949;55.656;37.422;2022-07-05T15:46:33;26.15;;;14.05;;
28802;SDS011;15949;55.656;37.422;2022-07-05T15:52:00;22.50;;;15.45;;
28802;SDS011;15949;55.656;37.422;2022-07-05T15:57:06;22.27;;;16.65;;
28802;SDS011;15949;55.656;37.422;2022-07-05T16:02:11;21.23;;;15.35;;
28802;SDS011;15949;55.656;37.422;2022-07-05T16:07:17;29.35;;;18.73;;
28802;SDS011;15949;55.656;37.422;2022-07-05T16:12:23;21.20;;;15.18;;
28802;SDS011;15949;55.656;37.422;2022-07-05T16:17:28;26.67;;;19.38;;
28802;SDS011;15949;55.656;37.422;2022-07-05T16:22:34;31.35;;;23.45;;
28802;SDS011;15949;55.656;37.422;2022-07-05T16:27:40;27.73;;;19.83;;
28802;SDS011;15949;55.656;37.422;2022-07-05T16:32:45;21.77;;;18.30;;
28802;SDS011;15949;55.656;37.422;2022-07-05T16:37:51;25.35;;;19.13;;
28802;SDS011;15949;55.656;37.422;2022-07-05T16:42:56;28.80;;;23.95;;
28802;SDS011;15949;55.656;37.422;2022-07-05T16:48:02;27.95;;;22.58;;
28802;SDS011;15949;55.656;37.422;2022-07-05T16:53:08;48.72;;;38.13;;
28802;SDS011;15949;55.656;37.422;2022-07-05T16:58:13;60.53;;;44.00;;
28802;SDS011;15949;55.656;37.422;2022-07-05T17:03:19;36.45;;;30.75;;
28802;SDS011;15949;55.656;37.422;2022-07-05T17:08:24;33.50;;;28.92;;
28802;SDS011;15949;55.656;37.422;2022-07-05T17:13:30;42.00;;;28.00;;
28802;SDS011;15949;55.656;37.422;2022-07-05T17:18:37;32.33;;;25.65;;
28802;SDS011;15949;55.656;37.422;2022-07-05T17:23:44;35.90;;;23.77;;
28802;SDS011;15949;55.656;37.422;2022-07-05T17:28:51;33.00;;;21.52;;
28802;SDS011;15949;55.656;37.422;2022-07-05T17:33:57;23.52;;;17.55;;
28802;SDS011;15949;55.656;37.422;2022-07-05T17:39:05;28.67;;;21.55;;
28802;SDS011;15949;55.656;37.422;2022-07-05T17:44:11;104.70;;;57.53;;
28802;SDS011;15949;55.656;37.422;2022-07-05T17:49:17;35.30;;;27.00;;
28802;SDS011;15949;55.656;37.422;2022-07-05T17:54:22;34.13;;;27.27;;
28802;SDS011;15949;55.656;37.422;2022-07-05T17:59:28;25.10;;;19.00;;
28802;SDS011;15949;55.656;37.422;2022-07-05T18:04:34;31.55;;;24.15;;
28802;SDS011;15949;55.656;37.422;2022-07-05T18:09:39;35.70;;;28.02;;
28802;SDS011;15949;55.656;37.422;2022-07-05T18:14:45;35.00;;;29.88;;
28802;SDS011;15949;55.656;37.422;2022-07-05T18:19:51;32.60;;;29.05;;
28802;SDS011;15949;55.656;37.422;2022-07-05T18:24:56;30.95;;;26.30;;
28802;SDS011;15949;55.656;37.422;2022-07-05T18:30:02;30.13;;;22.73;;
28802;SDS011;15949;55.656;37.422;2022-07-05T18:35:08;35.33;;;26.60;;
28802;SDS011;15949;55.656;37.422;2022-07-05T18:40:15;35.72;;;27.23;;
28802;SDS011;15949;55.656;37.422;2022-07-05T18:45:20;31.40;;;26.23;;
28802;SDS011;15949;55.656;37.422;2022-07-05T18:50:29;35.53;;;25.88;;
28802;SDS011;15949;55.656;37.422;2022-07-05T18:55:35;31.27;;;26.67;;
28802;SDS011;15949;55.656;37.422;2022-07-05T19:00:41;46.80;;;36.13;;
28802;SDS011;15949;55.656;37.422;2022-07-05T19:05:47;45.75;;;36.80;;
28802;SDS011;15949;55.656;37.422;2022-07-05T19:11:11;56.22;;;40.80;;
28802;SDS011;15949;55.656;37.422;2022-07-05T19:16:36;43.35;;;33.35;;
28802;SDS011;15949;55.656;37.422;2022-07-05T19:21:41;44.38;;;34.67;;
28802;SDS011;15949;55.656;37.422;2022-07-05T19:26:47;39.33;;;32.03;;
28802;SDS011;15949;55.656;37.422;2022-07-05T19:31:54;33.95;;;29.38;;
28802;SDS011;15949;55.656;37.422;2022-07-05T19:37:00;38.08;;;30.45;;
28802;SDS011;15949;55.656;37.422;2022-07-05T19:42:06;30.08;;;25.65;;
28802;SDS011;15949;55.656;37.422;2022-07-05T19:47:12;31.70;;;25.30;;
28802;SDS011;15949;55.656;37.422;2022-07-05T19:52:17;31.50;;;27.00;;
28802;SDS011;15949;55.656;37.422;2022-07-05T19:57:23;43.67;;;33.05;;
28802;SDS011;15949;55.656;37.422;2022-07-05T20:02:29;37.97;;;31.13;;
28802;SDS011;15949;55.656;37.422;2022-07-05T20:07:34;40.33;;;29.25;;
28802;SDS011;15949;55.656;37.422;2022-07-05T20:12:40;41.72;;;32.05;;
28802;SDS011;15949;55.656;37.422;2022-07-05T20:17:46;39.47;;;33.22;;
28802;SDS011;15949;55.656;37.422;2022-07-05T20:22:51;45.08;;;33.55;;
28802;SDS011;15949;55.656;37.422;2022-07-05T20:27:57;45.53;;;35.75;;
28802;SDS011;15949;55.656;37.422;2022-07-05T20:33:03;44.97;;;36.28;;
28802;SDS011;15949;55.656;37.422;2022-07-05T20:38:09;46.22;;;37.50;;
28802;SDS011;15949;55.656;37.422;2022-07-05T20:43:15;56.50;;;42.20;;
28802;SDS011;15949;55.656;37.422;2022-07-05T20:48:21;43.75;;;39.00;;
28802;SDS011;15949;55.656;37.422;2022-07-05T20:53:27;54.30;;;40.80;;
28802;SDS011;15949;55.656;37.422;2022-07-05T20:58:33;50.17;;;42.13;;
28802;SDS011;15949;55.656;37.422;2022-07-05T21:03:38;50.05;;;40.65;;
28802;SDS011;15949;55.656;37.422;2022-07-05T21:08:44;52.53;;;42.55;;
28802;SDS011;15949;55.656;37.422;2022-07-05T21:13:50;54.00;;;42.00;;
28802;SDS011;15949;55.656;37.422;2022-07-05T21:18:55;47.47;;;39.10;;
28802;SDS011;15949;55.656;37.422;2022-07-05T21:24:01;57.10;;;42.30;;
28802;SDS011;15949;55.656;37.422;2022-07-05T21:29:06;59.08;;;45.78;;
28802;SDS011;15949;55.656;37.422;2022-07-05T21:34:12;56.92;;;45.33;;
28802;SDS011;15949;55.656;37.422;2022-07-05T21:39:18;61.35;;;45.90;;
28802;SDS011;15949;55.656;37.422;2022-07-05T21:44:24;61.42;;;49.13;;
28802;SDS011;15949;55.656;37.422;2022-07-05T21:49:29;62.40;;;49.92;;
28802;SDS011;15949;55.656;37.422;2022-07-05T21:54:35;75.68;;;52.05;;
28802;SDS011;15949;55.656;37.422;2022-07-05T21:59:41;58.08;;;45.90;;
28802;SDS011;15949;55.656;37.422;2022-07-05T22:05:06;56.92;;;45.90;;
28802;SDS011;15949;55.656;37.422;2022-07-05T22:10:12;57.08;;;46.22;;
28802;SDS011;15949;55.656;37.422;2022-07-05T22:15:17;60.45;;;47.05;;
28802;SDS011;15949;55.656;37.422;2022-07-05T22:20:23;59.00;;;46.92;;
28802;SDS011;15949;55.656;37.422;2022-07-05T22:25:29;77.80;;;51.67;;
28802;SDS011;15949;55.656;37.422;2022-07-05T22:30:34;77.78;;;52.00;;
28802;SDS011;15949;55.656;37.422;2022-07-05T22:35:40;75.63;;;52.50;;
28802;SDS011;15949;55.656;37.422;2022-07-05T22:40:45;58.28;;;45.95;;
28802;SDS011;15949;55.656;37.422;2022-07-05T22:45:51;67.82;;;49.92;;
28802;SDS011;15949;55.656;37.422;2022-07-05T22:50:57;47.95;;;39.63;;
28802;SDS011;15949;55.656;37.422;2022-07-05T22:56:02;58.03;;;43.22;;
28802;SDS011;15949;55.656;37.422;2022-07-05T23:01:08;57.72;;;44.88;;
28802;SDS011;15949;55.656;37.422;2022-07-05T23:06:14;60.22;;;46.00;;
28802;SDS011;15949;55.656;37.422;2022-07-05T23:11:19;56.25;;;44.88;;
28802;SDS011;15949;55.656;37.422;2022-07-05T23:16:25;84.53;;;53.92;;
28802;SDS011;15949;55.656;37.422;2022-07-05T23:21:30;63.85;;;47.95;;
28802;SDS011;15949;55.656;37.422;2022-07-05T23:26:36;65.00;;;49.65;;
28802;SDS011;15949;55.656;37.422;2022-07-05T23:31:41;59.92;;;46.40;;
28802;SDS011;15949;55.656;37.422;2022-07-05T23:36:47;61.80;;;47.33;;
28802;SDS011;15949;55.656;37.422;2022-07-05T23:41:53;55.10;;;44.03;;
28802;SDS011;15949;55.656;37.422;2022-07-05T23:46:58;62.80;;;46.83;;
28802;SDS011;15949;55.656;37.422;2022-07-05T23:52:04;53.75;;;43.20;;
28802;SDS011;15949;55.656;37.422;2022-07-05T23:57:10;59.60;;;45.25;;
